createdAt,value
2018-11-13T00:01:23.843Z,13.40
2018-11-13T00:03:52.045Z,13.40
2018-11-13T00:06:20.216Z,13.40
2018-11-13T00:08:49.086Z,13.40
2018-11-13T00:11:17.250Z,13.40
2018-11-13T00:13:45.406Z,13.30
2018-11-13T00:16:13.582Z,13.40
2018-11-13T00:18:41.771Z,13.30
2018-11-13T00:21:09.946Z,13.30
2018-11-13T00:23:38.145Z,13.30
2018-11-13T00:26:06.322Z,13.30
2018-11-13T00:28:34.522Z,13.30
2018-11-13T00:31:02.730Z,13.30
2018-11-13T00:33:30.911Z,13.30
2018-11-13T00:35:59.101Z,13.30
2018-11-13T00:38:27.274Z,13.30
2018-11-13T00:40:55.451Z,13.30
2018-11-13T00:43:23.651Z,13.30
2018-11-13T00:45:51.864Z,13.30
2018-11-13T00:48:20.022Z,13.30
2018-11-13T00:50:48.218Z,13.30
2018-11-13T00:53:16.386Z,13.30
2018-11-13T00:55:44.561Z,13.30
2018-11-13T00:58:12.787Z,13.30
2018-11-13T01:00:40.968Z,13.30
2018-11-13T01:03:09.133Z,13.30
2018-11-13T01:05:37.348Z,13.30
2018-11-13T01:08:05.907Z,13.30
2018-11-13T01:10:34.103Z,13.30
2018-11-13T01:13:02.283Z,13.30
2018-11-13T01:15:30.482Z,13.30
2018-11-13T01:17:58.653Z,13.20
2018-11-13T01:20:26.838Z,13.20
2018-11-13T01:22:55.038Z,13.30
2018-11-13T01:25:23.219Z,13.30
2018-11-13T01:27:51.398Z,13.30
2018-11-13T01:30:19.606Z,13.30
2018-11-13T01:32:48.067Z,13.30
2018-11-13T01:35:17.317Z,13.20
2018-11-13T01:37:45.506Z,13.20
2018-11-13T01:40:16.574Z,13.20
2018-11-13T01:42:44.943Z,13.20
2018-11-13T01:45:14.158Z,13.20
2018-11-13T01:47:42.387Z,13.20
2018-11-13T01:50:10.949Z,13.20
2018-11-13T01:52:39.109Z,13.20
2018-11-13T01:55:08.949Z,13.20
2018-11-13T01:57:37.446Z,13.20
2018-11-13T02:00:15.482Z,13.20
2018-11-13T02:02:44.368Z,13.20
2018-11-13T02:05:12.578Z,13.20
2018-11-13T02:07:40.951Z,13.20
2018-11-13T02:10:09.157Z,13.10
2018-11-13T02:12:37.312Z,13.20
2018-11-13T02:15:06.600Z,13.10
2018-11-13T02:17:34.813Z,13.10
2018-11-13T02:20:03.086Z,13.10
2018-11-13T02:22:31.354Z,13.10
2018-11-13T02:24:59.514Z,13.10
2018-11-13T02:27:27.662Z,13.10
2018-11-13T02:29:55.856Z,13.10
2018-11-13T02:32:24.037Z,13.10
2018-11-13T02:34:52.229Z,13.10
2018-11-13T02:37:20.435Z,13.00
2018-11-13T02:39:48.610Z,13.00
2018-11-13T02:42:16.815Z,13.00
2018-11-13T02:44:44.987Z,13.00
2018-11-13T02:47:13.683Z,13.00
2018-11-13T02:49:42.260Z,13.00
2018-11-13T02:52:10.346Z,13.00
2018-11-13T02:54:38.560Z,13.00
2018-11-13T02:57:06.730Z,12.90
2018-11-13T02:59:34.925Z,12.90
2018-11-13T03:02:03.098Z,12.90
2018-11-13T03:04:31.298Z,12.90
2018-11-13T03:06:59.474Z,12.90
2018-11-13T03:09:27.667Z,12.90
2018-11-13T03:11:55.959Z,12.90
2018-11-13T03:14:24.150Z,12.90
2018-11-13T03:16:52.318Z,12.90
2018-11-13T03:19:20.530Z,12.80
2018-11-13T03:21:48.701Z,12.90
2018-11-13T03:24:17.790Z,12.90
2018-11-13T03:26:46.023Z,12.80
2018-11-13T03:29:14.194Z,12.80
2018-11-13T03:31:42.375Z,12.80
2018-11-13T03:34:10.562Z,12.80
2018-11-13T03:36:38.853Z,12.80
2018-11-13T03:39:08.369Z,12.80
2018-11-13T03:41:36.867Z,12.80
2018-11-13T03:44:05.622Z,12.80
2018-11-13T03:46:33.767Z,12.80
2018-11-13T03:49:01.943Z,12.80
2018-11-13T03:51:30.126Z,12.80
2018-11-13T03:53:58.302Z,12.80
2018-11-13T03:56:26.486Z,12.70
2018-11-13T03:58:54.657Z,12.70
2018-11-13T04:01:22.875Z,12.70
2018-11-13T04:03:51.566Z,12.70
2018-11-13T04:06:19.774Z,12.70
2018-11-13T04:08:48.085Z,12.70
2018-11-13T04:11:16.217Z,12.70
2018-11-13T04:13:44.397Z,12.70
2018-11-13T04:16:12.590Z,12.70
2018-11-13T04:18:40.762Z,12.70
2018-11-13T04:21:08.962Z,12.70
2018-11-13T04:23:37.145Z,12.60
2018-11-13T04:26:05.353Z,12.60
2018-11-13T04:28:33.538Z,12.60
2018-11-13T04:31:01.719Z,12.60
2018-11-13T04:33:29.903Z,12.60
2018-11-13T04:35:58.103Z,12.60
2018-11-13T04:38:26.277Z,12.60
2018-11-13T04:40:54.483Z,12.50
2018-11-13T04:43:22.646Z,12.60
2018-11-13T04:45:50.861Z,12.50
2018-11-13T04:48:19.037Z,12.50
2018-11-13T04:50:47.205Z,12.50
2018-11-13T04:53:15.390Z,12.50
2018-11-13T04:55:43.582Z,12.50
2018-11-13T04:58:11.755Z,12.50
2018-11-13T05:00:39.977Z,12.50
2018-11-13T05:03:08.268Z,12.50
2018-11-13T05:05:36.334Z,12.50
2018-11-13T05:08:04.789Z,12.50
2018-11-13T05:10:32.974Z,12.50
2018-11-13T05:13:01.095Z,12.50
2018-11-13T05:15:29.306Z,12.40
2018-11-13T05:17:57.458Z,12.40
2018-11-13T05:20:25.677Z,12.40
2018-11-13T05:22:53.886Z,12.40
2018-11-13T05:25:22.030Z,12.30
2018-11-13T05:27:50.207Z,12.30
2018-11-13T05:30:19.725Z,12.30
2018-11-13T05:32:48.247Z,12.30
2018-11-13T05:35:17.666Z,12.30
2018-11-13T05:37:46.364Z,12.30
2018-11-13T05:40:17.228Z,12.30
2018-11-13T05:42:45.377Z,12.20
2018-11-13T05:45:14.830Z,12.20
2018-11-13T05:47:43.030Z,12.20
2018-11-13T05:50:12.715Z,12.20
2018-11-13T05:52:41.629Z,12.20
2018-11-13T05:55:10.218Z,12.20
2018-11-13T05:57:38.398Z,12.30
2018-11-13T06:00:09.305Z,12.20
2018-11-13T06:02:37.657Z,12.20
2018-11-13T06:05:05.812Z,12.20
2018-11-13T06:07:34.853Z,12.20
2018-11-13T06:10:03.130Z,12.20
2018-11-13T06:12:31.222Z,12.20
2018-11-13T06:14:59.378Z,12.30
2018-11-13T06:17:27.577Z,12.30
2018-11-13T06:19:55.755Z,12.30
2018-11-13T06:22:23.949Z,12.30
2018-11-13T06:24:52.135Z,12.30
2018-11-13T06:27:20.334Z,12.30
2018-11-13T06:29:48.519Z,12.30
2018-11-13T06:32:16.698Z,12.30
2018-11-13T06:34:44.880Z,12.30
2018-11-13T06:37:13.078Z,12.30
2018-11-13T06:39:41.246Z,12.30
2018-11-13T06:42:09.451Z,12.30
2018-11-13T06:44:37.623Z,12.30
2018-11-13T06:47:06.046Z,12.20
2018-11-13T06:49:34.287Z,12.20
2018-11-13T06:52:02.402Z,12.20
2018-11-13T06:55:14.435Z,12.20
2018-11-13T06:57:42.626Z,12.20
2018-11-13T07:00:10.974Z,12.20
2018-11-13T07:02:39.514Z,12.20
2018-11-13T07:05:10.654Z,12.20
2018-11-13T07:07:38.865Z,12.20
2018-11-13T07:10:08.362Z,12.20
2018-11-13T07:12:36.558Z,12.20
2018-11-13T07:15:05.826Z,12.20
2018-11-13T07:17:34.030Z,12.20
2018-11-13T07:20:02.230Z,12.20
2018-11-13T07:22:30.402Z,12.20
2018-11-13T07:24:58.598Z,12.20
2018-11-13T07:27:27.051Z,12.20
2018-11-13T07:29:55.174Z,12.20
2018-11-13T07:32:23.362Z,12.20
2018-11-13T07:34:51.561Z,12.20
2018-11-13T07:37:19.742Z,12.20
2018-11-13T07:39:47.858Z,12.20
2018-11-13T07:42:16.006Z,12.20
2018-11-13T07:44:44.313Z,12.20
2018-11-13T07:47:12.539Z,12.20
2018-11-13T07:49:40.679Z,12.20
2018-11-13T07:52:08.846Z,12.20
2018-11-13T07:54:37.906Z,12.20
2018-11-13T07:57:07.297Z,12.20
2018-11-13T07:59:36.101Z,12.20
2018-11-13T08:02:04.272Z,12.20
2018-11-13T08:04:33.209Z,12.10
2018-11-13T08:07:01.366Z,12.10
2018-11-13T08:09:29.570Z,12.20
2018-11-13T08:11:57.749Z,12.10
2018-11-13T08:14:25.935Z,12.10
2018-11-13T08:16:54.109Z,12.10
2018-11-13T08:19:22.418Z,12.10
2018-11-13T08:21:50.626Z,12.10
2018-11-13T08:24:18.829Z,12.10
2018-11-13T08:26:46.968Z,12.10
2018-11-13T08:29:15.153Z,12.10
2018-11-13T08:31:43.333Z,12.10
2018-11-13T08:34:11.630Z,12.10
2018-11-13T08:36:39.810Z,12.10
2018-11-13T08:39:10.054Z,12.20
2018-11-13T08:41:38.241Z,12.20
2018-11-13T08:44:06.819Z,12.20
2018-11-13T08:46:34.915Z,12.20
2018-11-13T08:49:03.523Z,12.20
2018-11-13T08:51:31.788Z,12.20
2018-11-13T08:53:59.874Z,12.20
2018-11-13T08:56:28.066Z,12.20
2018-11-13T08:58:56.312Z,12.20
2018-11-13T09:01:24.668Z,12.20
2018-11-13T09:03:52.822Z,12.20
2018-11-13T09:06:21.065Z,12.20
2018-11-13T09:08:49.199Z,12.20
2018-11-13T09:11:17.448Z,12.20
2018-11-13T09:13:45.585Z,12.20
2018-11-13T09:16:13.764Z,12.20
2018-11-13T09:18:41.957Z,12.20
2018-11-13T09:21:10.130Z,12.20
2018-11-13T09:23:38.326Z,12.20
2018-11-13T09:26:06.518Z,12.30
2018-11-13T09:28:34.710Z,12.30
2018-11-13T09:31:03.155Z,12.30
2018-11-13T09:33:31.127Z,12.20
2018-11-13T09:35:59.255Z,12.20
2018-11-13T09:38:27.446Z,12.20
2018-11-13T09:40:55.666Z,12.10
2018-11-13T09:43:23.810Z,12.20
2018-11-13T09:45:52.152Z,12.20
2018-11-13T09:48:20.443Z,12.40
2018-11-13T09:50:48.739Z,12.50
2018-11-13T09:53:16.807Z,12.50
2018-11-13T09:55:45.024Z,12.40
2018-11-13T09:58:13.158Z,12.40
2018-11-13T10:00:41.486Z,12.30
2018-11-13T10:03:10.304Z,12.30
2018-11-13T10:05:37.878Z,12.30
2018-11-13T10:08:06.030Z,12.30
2018-11-13T10:10:34.296Z,12.30
2018-11-13T10:13:02.381Z,12.30
2018-11-13T10:15:31.055Z,12.40
2018-11-13T10:18:00.142Z,12.30
2018-11-13T10:20:28.273Z,12.40
2018-11-13T10:22:57.499Z,12.50
2018-11-13T10:25:25.658Z,12.50
2018-11-13T10:27:53.854Z,12.50
2018-11-13T10:30:23.180Z,12.60
2018-11-13T10:32:52.091Z,12.50
2018-11-13T10:35:21.706Z,12.60
2018-11-13T10:37:49.900Z,12.60
2018-11-13T10:40:19.661Z,12.60
2018-11-13T10:42:47.818Z,12.60
2018-11-13T10:45:19.465Z,12.70
2018-11-13T10:47:47.650Z,12.70
2018-11-13T10:50:17.961Z,12.70
2018-11-13T10:52:46.101Z,12.80
2018-11-13T10:55:14.362Z,12.80
2018-11-13T10:57:42.958Z,12.90
2018-11-13T11:00:17.881Z,13.10
2018-11-13T11:02:51.342Z,13.30
2018-11-13T11:05:19.619Z,13.60
2018-11-13T11:07:48.310Z,13.60
2018-11-13T11:10:16.498Z,13.50
2018-11-13T11:12:44.664Z,13.40
2018-11-13T11:15:12.850Z,13.20
2018-11-13T11:17:41.042Z,13.20
2018-11-13T11:20:10.786Z,13.10
2018-11-13T11:22:38.903Z,13.10
2018-11-13T11:25:08.336Z,13.00
2018-11-13T11:27:36.450Z,13.00
2018-11-13T11:30:05.237Z,13.10
2018-11-13T11:32:33.346Z,13.10
2018-11-13T11:35:01.441Z,13.10
2018-11-13T11:37:29.638Z,13.10
2018-11-13T11:39:57.842Z,13.10
2018-11-13T11:42:25.974Z,13.10
2018-11-13T11:44:54.214Z,13.10
2018-11-13T11:47:22.390Z,13.10
2018-11-13T11:49:50.539Z,13.10
2018-11-13T11:52:18.723Z,13.10
2018-11-13T11:54:46.949Z,13.10
2018-11-13T11:57:15.094Z,13.10
2018-11-13T11:59:43.297Z,13.10
2018-11-13T12:02:11.614Z,13.10
2018-11-13T12:04:39.772Z,13.10
2018-11-13T12:07:07.958Z,13.00
2018-11-13T12:09:36.053Z,13.00
2018-11-13T12:12:04.269Z,13.10
2018-11-13T12:14:32.411Z,13.10
2018-11-13T12:17:00.602Z,13.20
2018-11-13T12:19:28.814Z,13.20
2018-11-13T12:21:57.894Z,13.30
2018-11-13T12:24:26.125Z,13.30
2018-11-13T12:26:54.231Z,13.20
2018-11-13T12:29:22.350Z,13.20
2018-11-13T12:31:50.532Z,13.20
2018-11-13T12:34:18.776Z,13.40
2018-11-13T12:36:46.914Z,13.60
2018-11-13T12:39:15.102Z,13.90
2018-11-13T12:41:43.190Z,14.10
2018-11-13T12:44:11.374Z,14.30
2018-11-13T12:46:39.592Z,14.60
2018-11-13T12:49:07.754Z,14.80
2018-11-13T12:51:40.161Z,15.10
2018-11-13T12:54:08.270Z,15.20
2018-11-13T12:56:36.406Z,15.30
2018-11-13T12:59:04.593Z,15.40
2018-11-13T13:01:32.870Z,15.50
2018-11-13T13:04:00.962Z,15.60
2018-11-13T13:06:29.138Z,15.80
2018-11-13T13:08:57.346Z,15.90
2018-11-13T13:11:25.534Z,16.00
2018-11-13T13:13:59.178Z,16.10
2018-11-13T13:16:27.323Z,16.10
2018-11-13T13:18:55.561Z,16.00
2018-11-13T13:21:23.702Z,15.80
2018-11-13T13:23:51.878Z,15.60
2018-11-13T13:26:20.094Z,15.40
2018-11-13T13:28:48.366Z,15.30
2018-11-13T13:31:16.645Z,15.40
2018-11-13T13:33:44.734Z,15.60
2018-11-13T13:36:12.922Z,15.80
2018-11-13T13:38:41.105Z,16.10
2018-11-13T13:41:09.303Z,16.30
2018-11-13T13:43:37.478Z,16.50
2018-11-13T13:46:05.666Z,16.70
2018-11-13T13:48:33.856Z,16.80
2018-11-13T13:51:02.042Z,16.90
2018-11-13T13:53:30.134Z,17.00
2018-11-13T13:55:58.316Z,16.90
2018-11-13T13:58:26.720Z,16.80
2018-11-13T14:00:55.984Z,16.40
2018-11-13T14:03:23.891Z,16.00
2018-11-13T14:05:52.122Z,15.60
2018-11-13T14:08:20.596Z,15.30
2018-11-13T14:10:48.775Z,14.90
2018-11-13T14:13:17.170Z,14.80
2018-11-13T14:15:45.346Z,14.60
2018-11-13T14:18:13.852Z,14.50
2018-11-13T14:20:42.033Z,14.40
2018-11-13T14:23:10.203Z,14.30
2018-11-13T14:25:38.446Z,14.20
2018-11-13T14:28:06.569Z,14.10
2018-11-13T14:30:35.829Z,14.00
2018-11-13T14:33:05.227Z,14.00
2018-11-13T14:35:33.467Z,13.90
2018-11-13T14:38:02.015Z,13.90
2018-11-13T14:40:31.941Z,13.80
2018-11-13T14:43:01.661Z,13.80
2018-11-13T14:45:30.162Z,13.70
2018-11-13T14:47:58.563Z,13.60
2018-11-13T14:50:28.070Z,13.60
2018-11-13T14:52:56.469Z,13.50
2018-11-13T14:55:26.906Z,13.50
2018-11-13T14:57:55.493Z,13.40
2018-11-13T15:00:25.022Z,13.30
2018-11-13T15:02:53.714Z,13.30
2018-11-13T15:05:22.521Z,13.20
2018-11-13T15:07:52.090Z,13.10
2018-11-13T15:10:42.910Z,13.10
2018-11-13T15:13:11.546Z,13.00
2018-11-13T15:15:39.719Z,13.00
2018-11-13T15:18:08.031Z,13.00
2018-11-13T15:20:36.401Z,13.00
2018-11-13T15:23:05.509Z,12.90
2018-11-13T15:28:08.178Z,12.80
2018-11-13T15:30:38.910Z,12.80
2018-11-13T15:33:08.633Z,12.80
2018-11-13T15:35:36.798Z,12.80
2018-11-13T15:38:05.662Z,12.80
2018-11-13T15:40:33.786Z,12.70
2018-11-13T15:43:01.978Z,12.70
2018-11-13T15:45:30.152Z,12.70
2018-11-13T15:47:59.593Z,12.60
2018-11-13T15:50:29.910Z,12.50
2018-11-13T15:52:58.213Z,12.50
2018-11-13T15:55:26.418Z,12.40
2018-11-13T15:57:54.911Z,12.30
2018-11-13T16:00:25.405Z,12.30
2018-11-13T16:02:54.050Z,12.20
2018-11-13T16:05:25.757Z,12.10
2018-11-13T16:07:55.126Z,12.10
2018-11-13T16:10:23.515Z,12.00
2018-11-13T16:12:51.717Z,12.00
2018-11-13T16:15:21.114Z,12.00
2018-11-13T16:17:50.030Z,12.00
2018-11-13T16:20:18.405Z,12.00
2018-11-13T16:22:46.601Z,12.00
2018-11-13T16:25:14.770Z,12.00
2018-11-13T16:27:42.965Z,12.00
2018-11-13T16:30:17.268Z,12.00
2018-11-13T16:32:46.318Z,12.00
2018-11-13T16:35:15.591Z,12.00
2018-11-13T16:37:44.768Z,12.00
2018-11-13T16:40:14.854Z,11.90
2018-11-13T16:42:42.986Z,11.90
2018-11-13T16:45:12.666Z,11.90
2018-11-13T16:47:40.894Z,11.90
2018-11-13T16:50:13.030Z,11.80
2018-11-13T16:52:41.225Z,11.80
2018-11-13T16:55:09.398Z,11.80
2018-11-13T16:57:37.606Z,11.70
2018-11-13T17:00:09.652Z,11.70
2018-11-13T17:02:37.774Z,11.60
2018-11-13T17:05:08.425Z,11.60
2018-11-13T17:07:36.607Z,11.50
2018-11-13T17:10:08.016Z,11.40
2018-11-13T17:12:36.138Z,11.40
2018-11-13T17:15:04.603Z,11.30
2018-11-13T17:17:33.287Z,11.30
2018-11-13T17:20:01.439Z,11.20
2018-11-13T17:22:29.614Z,11.20
2018-11-13T17:24:57.788Z,11.20
2018-11-13T17:27:26.132Z,11.10
2018-11-13T17:29:54.342Z,11.10
2018-11-13T17:32:22.466Z,11.10
2018-11-13T17:34:50.651Z,11.10
2018-11-13T17:37:18.858Z,11.00
2018-11-13T17:39:47.014Z,11.00
2018-11-13T17:42:15.211Z,11.00
2018-11-13T17:44:43.391Z,11.00
2018-11-13T17:47:11.490Z,10.90
2018-11-13T17:49:39.681Z,10.90
2018-11-13T17:52:07.874Z,10.80
2018-11-13T17:54:36.451Z,10.80
2018-11-13T17:57:05.209Z,10.80
2018-11-13T17:59:33.390Z,10.80
2018-11-13T18:02:01.514Z,10.70
2018-11-13T18:04:29.708Z,10.70
2018-11-13T18:06:58.158Z,10.60
2018-11-13T18:09:26.348Z,10.60
2018-11-13T18:11:54.469Z,10.60
2018-11-13T18:14:22.678Z,10.50
2018-11-13T18:16:50.957Z,10.50
2018-11-13T18:19:19.133Z,10.40
2018-11-13T18:21:47.417Z,10.30
2018-11-13T18:24:15.510Z,10.30
2018-11-13T18:26:43.691Z,10.30
2018-11-13T18:29:11.886Z,10.30
2018-11-13T18:31:40.058Z,10.30
2018-11-13T18:34:08.265Z,10.20
2018-11-13T18:36:36.442Z,10.20
2018-11-13T18:39:07.172Z,10.10
2018-11-13T18:41:35.001Z,10.10
2018-11-13T18:44:03.162Z,10.10
2018-11-13T18:46:31.329Z,10.10
2018-11-13T18:48:59.530Z,10.00
2018-11-13T18:51:27.823Z,10.00
2018-11-13T18:53:56.014Z,10.00
2018-11-13T18:56:24.315Z,10.00
2018-11-13T18:58:52.478Z,10.00
2018-11-13T19:01:20.578Z,9.90
2018-11-13T19:03:48.778Z,9.90
2018-11-13T19:06:16.941Z,9.90
2018-11-13T19:08:45.147Z,9.90
2018-11-13T19:11:13.417Z,9.90
2018-11-13T19:13:41.517Z,9.90
2018-11-13T19:16:10.291Z,9.80
2018-11-13T19:18:38.395Z,9.80
2018-11-13T19:21:06.586Z,9.70
2018-11-13T19:23:34.766Z,9.70
2018-11-13T19:26:02.878Z,9.70
2018-11-13T19:28:31.049Z,9.60
2018-11-13T19:30:59.241Z,9.60
2018-11-13T19:33:27.404Z,9.60
2018-11-13T19:35:55.655Z,9.50
2018-11-13T19:38:23.777Z,9.50
2018-11-13T19:40:51.979Z,9.40
2018-11-13T19:43:20.187Z,9.40
2018-11-13T19:45:48.548Z,9.40
2018-11-13T19:48:16.738Z,9.40
2018-11-13T19:50:44.920Z,9.40
2018-11-13T19:53:13.148Z,9.30
2018-11-13T19:55:41.315Z,9.30
2018-11-13T19:58:09.473Z,9.30
2018-11-13T20:00:38.607Z,9.20
2018-11-13T20:03:08.137Z,9.20
2018-11-13T20:05:36.299Z,9.10
2018-11-13T20:08:04.850Z,9.10
2018-11-13T20:10:33.965Z,9.00
2018-11-13T20:13:03.318Z,9.10
2018-11-13T20:15:32.233Z,9.10
2018-11-13T20:18:00.389Z,9.10
2018-11-13T20:20:29.841Z,9.10
2018-11-13T20:22:58.925Z,9.10
2018-11-13T20:25:28.446Z,9.10
2018-11-13T20:27:56.633Z,9.10
2018-11-13T20:30:28.104Z,9.10
2018-11-13T20:32:56.302Z,9.10
2018-11-13T20:35:24.555Z,9.00
2018-11-13T20:37:53.378Z,9.00
2018-11-13T20:40:23.921Z,9.00
2018-11-13T20:42:53.338Z,8.90
2018-11-13T20:45:21.525Z,8.90
2018-11-13T20:47:49.721Z,8.90
2018-11-13T20:50:19.227Z,8.90
2018-11-13T20:52:47.637Z,8.90
2018-11-13T20:55:15.822Z,8.90
2018-11-13T20:57:43.994Z,8.80
2018-11-13T21:00:16.798Z,8.80
2018-11-13T21:02:45.085Z,8.80
2018-11-13T21:05:13.570Z,8.80
2018-11-13T21:07:41.793Z,8.70
2018-11-13T21:10:14.216Z,8.70
2018-11-13T21:12:43.058Z,8.60
2018-11-13T21:15:13.381Z,8.60
2018-11-13T21:17:41.576Z,8.50
2018-11-13T21:20:11.923Z,8.50
2018-11-13T21:22:40.301Z,8.50
2018-11-13T21:25:10.229Z,8.40
2018-11-13T21:27:38.425Z,8.40
2018-11-13T21:30:09.625Z,8.30
2018-11-13T21:32:37.658Z,8.30
2018-11-13T21:35:06.107Z,8.20
2018-11-13T21:37:34.304Z,8.20
2018-11-13T21:40:02.417Z,8.10
2018-11-13T21:42:30.610Z,8.10
2018-11-13T21:44:58.791Z,8.10
2018-11-13T21:47:26.994Z,8.10
2018-11-13T21:49:55.189Z,8.10
2018-11-13T21:52:23.363Z,8.00
2018-11-13T21:54:51.560Z,8.00
2018-11-13T21:57:19.745Z,8.00
2018-11-13T21:59:47.926Z,8.00
2018-11-13T22:02:16.110Z,8.00
2018-11-13T22:04:46.063Z,8.00
2018-11-13T22:07:14.206Z,8.00
2018-11-13T22:09:42.622Z,8.00
2018-11-13T22:12:10.778Z,8.00
2018-11-13T22:14:39.008Z,8.00
2018-11-13T22:17:07.277Z,7.90
2018-11-13T22:19:35.458Z,7.90
2018-11-13T22:22:03.622Z,7.90
2018-11-13T22:24:31.726Z,7.90
2018-11-13T22:26:59.926Z,7.90
2018-11-13T22:29:28.101Z,7.80
2018-11-13T22:31:56.334Z,7.80
2018-11-13T22:34:24.470Z,7.80
2018-11-13T22:36:52.646Z,7.80
2018-11-13T22:39:20.853Z,7.80
2018-11-13T22:41:49.058Z,7.80
2018-11-13T22:44:17.246Z,7.80
2018-11-13T22:46:45.396Z,7.80
2018-11-13T22:49:13.637Z,7.80
2018-11-13T22:51:41.775Z,7.70
2018-11-13T22:54:09.969Z,7.70
2018-11-13T22:56:38.142Z,7.70
2018-11-13T22:59:06.358Z,7.70
2018-11-13T23:01:34.539Z,7.60
2018-11-13T23:04:02.726Z,7.60
2018-11-13T23:06:30.886Z,7.60
2018-11-13T23:08:59.096Z,7.60
2018-11-13T23:11:27.267Z,7.60
2018-11-13T23:13:55.478Z,7.60
2018-11-13T23:16:23.665Z,7.50
2018-11-13T23:18:51.778Z,7.50
2018-11-13T23:21:19.911Z,7.50
2018-11-13T23:23:48.123Z,7.50
2018-11-13T23:26:16.277Z,7.50
2018-11-13T23:28:44.488Z,7.50
2018-11-13T23:31:12.651Z,7.40
2018-11-13T23:33:40.846Z,7.40
2018-11-13T23:36:09.095Z,7.40
2018-11-13T23:38:37.234Z,7.30
2018-11-13T23:41:05.579Z,7.30
2018-11-13T23:43:33.693Z,7.30
2018-11-13T23:46:01.895Z,7.30
2018-11-13T23:48:30.068Z,7.20
2018-11-13T23:50:58.257Z,7.20
2018-11-13T23:53:26.446Z,7.20
2018-11-13T23:55:54.634Z,7.20
2018-11-13T23:58:22.818Z,7.10
